Fitchville, Ohio
Current Conditions -  °F | °C
As of 10:13 PM on Monday 20 Oct 2014 (Local Time) from KMFD Reporting Station
Haze Haze  
Wind Chill: 52°   Ceiling: 2400
Heat Index: 52°   Visibility: 6mi
Dew Point: 51°   Wind: 6mph
Humidity: 97%   Direction: 250°WSW
Pressure: 29.86"   Gusts: NA
Location:  41.1035°N, 82.407°W
Report Text: KMFD 210213Z 25005KT 6SM BR FEW008 SCT014 OVC024 11/11 A2986 RMK AO2 T01110106
Loading
Personal Weather Stations






























Interactive Weather Map
Tropical Storm Tracking
New forecast layout! Learn more

10-Day Weather Forecast

Advertisements
Track Severe Weather on mobile